Time;durP1;ratioP1;P1;durP2;ratioP2;P2;SDS_P1;SDS_P2;PMS_P1;PMS_P2;Temp;Humidity;BMP_temperature;BMP_pressure;BME280_temperature;BME280_humidity;BME280_pressure;Samples;Min_cycle;Max_cycle;Signal;HPM_P1;HPM_P2
2023/10/04 00:00:59;;;;;;;7.23;3.20;;;;;;;15.72;86.87;101061.88;5093678;28;20181;-79
2023/10/04 00:03:27;;;;;;;3.73;3.43;;;;;;;15.73;86.59;101058.00;5094477;28;20206;-80
2023/10/04 00:05:54;;;;;;;2.83;2.03;;;;;;;15.66;86.52;101054.16;5094717;28;20219;-80
2023/10/04 00:08:19;;;;;;;2.87;2.67;;;;;;;15.65;86.45;101045.06;5094313;28;20178;-80
2023/10/04 00:10:45;;;;;;;6.43;3.97;;;;;;;15.35;87.59;101041.44;5093077;28;20227;-80
2023/10/04 00:13:13;;;;;;;6.33;2.47;;;;;;;15.73;87.31;101065.44;5096507;28;20682;-81
2023/10/04 00:15:38;;;;;;;7.53;3.33;;;;;;;15.64;86.58;101059.19;5095626;28;20682;-81
2023/10/04 00:18:04;;;;;;;3.47;2.50;;;;;;;15.83;85.59;101061.53;5096380;28;20189;-81
2023/10/04 00:20:33;;;;;;;5.20;3.30;;;;;;;15.84;84.97;101055.69;5096216;28;20178;-81
2023/10/04 00:23:00;;;;;;;3.70;3.40;;;;;;;15.67;85.34;101050.25;5096257;28;20229;-81
2023/10/04 00:25:25;;;;;;;3.47;3.17;;;;;;;15.79;85.17;101072.41;5095000;28;20184;-81
2023/10/04 00:27:55;;;;;;;3.00;2.73;;;;;;;15.90;84.87;101073.63;5096166;28;20181;-81
2023/10/04 00:30:22;;;;;;;10.47;2.20;;;;;;;15.96;84.48;101066.00;5094825;28;20724;-81
2023/10/04 00:32:48;;;;;;;5.00;2.27;;;;;;;15.82;84.03;101048.88;5095289;28;20177;-80
2023/10/04 00:35:23;;;;;;;4.40;2.53;;;;;;;15.99;83.93;101066.13;5094053;28;20174;-81
2023/10/04 00:37:56;;;;;;;3.13;2.73;;;;;;;15.87;83.82;101046.75;5095918;28;20401;-80
2023/10/04 00:40:25;;;;;;;7.47;4.30;;;;;;;15.75;83.99;101041.13;5095573;28;20181;-81
2023/10/04 00:42:51;;;;;;;4.77;2.27;;;;;;;15.77;83.56;101042.44;5093427;28;20194;-81
2023/10/04 00:45:19;;;;;;;4.87;3.43;;;;;;;15.83;83.83;101040.28;5095271;28;20178;-81
2023/10/04 00:47:53;;;;;;;8.00;3.17;;;;;;;15.74;83.67;101042.25;5094248;28;20663;-81
2023/10/04 00:50:25;;;;;;;3.23;2.87;;;;;;;15.89;83.47;101047.22;5093481;28;20235;-80
2023/10/04 00:52:57;;;;;;;3.13;2.83;;;;;;;15.87;83.27;101051.44;5094730;28;20202;-80
2023/10/04 00:55:24;;;;;;;8.70;2.77;;;;;;;15.69;83.17;101042.47;5094976;28;20178;-81
2023/10/04 00:57:56;;;;;;;7.37;3.63;;;;;;;15.91;83.31;101044.13;5094811;28;20178;-81
2023/10/04 01:00:22;;;;;;;2.80;2.37;;;;;;;15.87;82.30;101032.16;5094510;28;20173;-81
2023/10/04 01:02:48;;;;;;;6.93;3.33;;;;;;;15.89;82.63;101049.97;5092987;28;20558;-79
2023/10/04 01:05:15;;;;;;;3.43;2.70;;;;;;;15.83;82.93;101042.22;5093602;28;20215;-78
2023/10/04 01:07:44;;;;;;;10.53;3.77;;;;;;;15.70;83.32;101033.06;5095163;28;20254;-78
2023/10/04 01:10:16;;;;;;;5.73;3.87;;;;;;;15.70;83.18;101036.63;5093443;28;20209;-80
2023/10/04 01:12:44;;;;;;;10.37;2.37;;;;;;;15.82;83.10;101041.44;5091915;28;20181;-79
2023/10/04 01:15:55;;;;;;;3.73;2.63;;;;;;;15.70;83.22;101028.34;5094607;28;20201;-78
2023/10/04 01:18:04;;;;;;;9.83;3.13;;;;;;;15.82;83.63;101044.19;5091695;28;20205;-79
2023/10/04 01:20:30;;;;;;;2.80;2.20;;;;;;;15.85;83.33;101054.53;5092944;28;20182;-79
2023/10/04 01:23:05;;;;;;;2.37;2.07;;;;;;;15.77;83.22;101042.44;5092655;28;20616;-78
2023/10/04 01:25:32;;;;;;;7.07;2.90;;;;;;;15.89;83.00;101058.22;5094059;28;20174;-79
2023/10/04 01:28:00;;;;;;;3.77;2.50;;;;;;;15.95;82.35;101056.13;5093616;28;20184;-79
2023/10/04 01:30:27;;;;;;;3.20;3.00;;;;;;;16.03;82.55;101067.06;5092705;28;20209;-79
2023/10/04 01:32:53;;;;;;;6.53;2.03;;;;;;;16.13;82.22;101070.59;5092093;28;20177;-79
2023/10/04 01:35:21;;;;;;;4.20;3.80;;;;;;;16.00;82.01;101055.91;5093637;28;20209;-79
2023/10/04 01:37:47;;;;;;;2.13;1.93;;;;;;;15.96;82.85;101061.28;5094030;28;20169;-79
2023/10/04 01:40:13;;;;;;;2.93;2.70;;;;;;;15.64;82.95;101034.38;5094022;28;20184;-79
2023/10/04 01:42:42;;;;;;;5.73;2.60;;;;;;;15.61;83.68;101060.63;5094329;28;20185;-79
2023/10/04 01:45:15;;;;;;;1.43;1.33;;;;;;;15.66;83.79;101057.72;5094432;28;20205;-79
2023/10/04 01:47:41;;;;;;;3.00;1.00;;;;;;;15.74;83.09;101053.28;5094568;28;20170;-78
2023/10/04 01:50:09;;;;;;;5.90;2.57;;;;;;;15.61;83.11;101051.56;5092737;28;20178;-79
2023/10/04 01:52:36;;;;;;;7.33;2.80;;;;;;;15.55;83.79;101047.34;5093131;28;20177;-79
2023/10/04 01:55:05;;;;;;;3.10;2.60;;;;;;;15.48;83.67;101047.88;5092377;28;20206;-79
2023/10/04 01:57:30;;;;;;;5.73;2.40;;;;;;;15.65;83.54;101066.31;5092469;28;20202;-79
2023/10/04 01:59:55;;;;;;;8.13;3.27;;;;;;;15.53;83.84;101055.94;5093645;28;20761;-78
2023/10/04 02:02:23;;;;;;;1.93;1.83;;;;;;;15.65;83.37;101066.31;5093087;28;20256;-78
2023/10/04 02:04:53;;;;;;;4.33;2.83;;;;;;;15.54;83.57;101054.00;5091962;28;20247;-79
2023/10/04 02:07:21;;;;;;;4.90;4.40;;;;;;;15.55;84.06;101061.13;5093608;28;20170;-80
2023/10/04 02:09:47;;;;;;;4.57;4.07;;;;;;;15.53;83.99;101063.41;5092175;28;20551;-81
2023/10/04 02:12:13;;;;;;;4.43;3.60;;;;;;;15.58;83.68;101063.22;5091390;28;20573;-81
2023/10/04 02:14:38;;;;;;;5.57;4.23;;;;;;;15.55;83.96;101053.66;5093271;28;20201;-81
2023/10/04 02:17:08;;;;;;;5.57;3.43;;;;;;;15.73;83.42;101068.19;5093110;28;20269;-78
2023/10/04 02:19:33;;;;;;;7.13;3.60;;;;;;;15.44;83.68;101039.44;5092975;28;20173;-79
2023/10/04 02:21:58;;;;;;;5.40;2.93;;;;;;;15.70;83.36;101055.09;5092534;28;20250;-80
2023/10/04 02:24:24;;;;;;;3.50;2.73;;;;;;;15.73;83.18;101055.22;5092594;28;20201;-81
2023/10/04 02:26:50;;;;;;;5.37;3.40;;;;;;;15.44;83.42;101044.94;5093241;28;20219;-81
2023/10/04 02:29:15;;;;;;;3.20;2.93;;;;;;;15.61;83.22;101054.31;5091606;28;20556;-80
2023/10/04 02:31:41;;;;;;;7.20;3.57;;;;;;;15.61;83.61;101063.38;5092074;28;20271;-80
2023/10/04 02:34:06;;;;;;;3.17;2.73;;;;;;;15.53;83.31;101055.13;5091722;28;20284;-79
2023/10/04 02:36:32;;;;;;;3.57;3.27;;;;;;;15.80;82.74;101082.28;5091952;28;20206;-80
2023/10/04 02:38:57;;;;;;;2.37;2.20;;;;;;;15.71;82.62;101076.78;5091931;28;20736;-80
2023/10/04 02:41:23;;;;;;;3.03;2.73;;;;;;;15.76;82.28;101075.78;5091173;28;20178;-79
2023/10/04 02:43:48;;;;;;;11.97;2.37;;;;;;;15.75;82.35;101065.91;5091700;28;20284;-79
2023/10/04 02:46:13;;;;;;;3.70;3.47;;;;;;;15.76;82.37;101079.34;5090401;28;20243;-79
2023/10/04 02:48:41;;;;;;;3.43;1.10;;;;;;;15.86;82.41;101083.69;5091502;28;20173;-79
2023/10/04 02:51:06;;;;;;;6.30;3.57;;;;;;;15.65;82.83;101074.56;5091204;28;20537;-80
2023/10/04 02:53:32;;;;;;;4.17;2.97;;;;;;;15.65;82.80;101075.38;5091473;28;21498;-79
2023/10/04 02:55:58;;;;;;;7.60;4.23;;;;;;;15.58;83.08;101071.47;5092942;28;20254;-80
2023/10/04 02:58:24;;;;;;;4.13;3.30;;;;;;;15.79;82.94;101091.69;5092693;28;20207;-81
2023/10/04 03:00:50;;;;;;;5.13;2.93;;;;;;;15.80;82.49;101087.00;5093543;28;20189;-81
2023/10/04 03:03:22;;;;;;;5.37;4.07;;;;;;;15.77;82.22;101077.44;5093071;28;20216;-81
2023/10/04 03:05:57;;;;;;;6.40;4.20;;;;;;;15.63;82.58;101082.38;5092723;28;20173;-80
2023/10/04 03:08:23;;;;;;;3.23;2.97;;;;;;;15.75;82.63;101088.78;5092100;28;20178;-81
2023/10/04 03:10:55;;;;;;;2.40;2.27;;;;;;;15.72;82.63;101081.16;5092371;28;20195;-81
2023/10/04 03:13:25;;;;;;;13.77;3.27;;;;;;;15.69;82.63;101081.84;5093462;28;20675;-80
2023/10/04 03:15:51;;;;;;;7.83;2.67;;;;;;;15.87;82.65;101093.59;5093132;28;20223;-80
2023/10/04 03:18:20;;;;;;;6.43;3.33;;;;;;;15.79;82.76;101088.94;5093744;28;20662;-81
2023/10/04 03:23:25;;;;;;;14.57;3.00;;;;;;;15.77;82.86;101088.47;5093329;28;20208;-81
2023/10/04 03:25:52;;;;;;;15.87;1.80;;;;;;;15.72;83.27;101097.69;5092921;28;20248;-81
2023/10/04 03:28:19;;;;;;;7.00;1.67;;;;;;;15.87;82.84;101107.38;5093374;28;20575;-81
2023/10/04 03:30:45;;;;;;;3.00;2.57;;;;;;;15.75;82.79;101096.22;5093225;28;20232;-81
2023/10/04 03:33:10;;;;;;;2.00;1.70;;;;;;;15.99;82.81;101120.44;5092932;28;20198;-81
2023/10/04 03:35:39;;;;;;;2.30;1.90;;;;;;;15.96;81.70;101107.34;5094792;28;20213;-80
2023/10/04 03:38:07;;;;;;;1.53;1.43;;;;;;;15.99;82.37;101117.69;5095523;28;20182;-81
2023/10/04 03:40:37;;;;;;;6.63;3.37;;;;;;;16.00;81.52;101113.78;5095502;28;20804;-81
2023/10/04 03:43:05;;;;;;;4.83;3.47;;;;;;;16.18;80.96;101120.03;5096308;28;20558;-81
2023/10/04 03:45:32;;;;;;;2.90;1.87;;;;;;;16.19;80.89;101110.59;5096260;28;20202;-81
2023/10/04 03:47:59;;;;;;;7.10;3.40;;;;;;;15.99;81.21;101101.97;5096517;28;20231;-81
2023/10/04 03:50:24;;;;;;;5.10;2.70;;;;;;;16.05;81.39;101110.84;5095003;28;20186;-81
2023/10/04 03:52:52;;;;;;;9.47;2.83;;;;;;;16.17;81.09;101121.97;5095725;28;20177;-81
2023/10/04 03:55:18;;;;;;;11.37;3.53;;;;;;;16.09;80.83;101122.03;5095600;28;20637;-80
2023/10/04 03:57:44;;;;;;;4.63;2.10;;;;;;;16.12;81.59;101118.59;5096071;28;20242;-81
2023/10/04 04:00:17;;;;;;;3.27;1.93;;;;;;;16.16;81.59;101128.63;5095839;28;20190;-81
2023/10/04 04:02:43;;;;;;;9.17;2.37;;;;;;;16.22;81.35;101126.50;5095383;28;20651;-81
2023/10/04 04:05:11;;;;;;;1.70;1.60;;;;;;;16.26;81.03;101135.72;5094342;28;20209;-81
2023/10/04 04:07:36;;;;;;;3.50;3.20;;;;;;;15.97;81.58;101100.69;5095799;28;20174;-80
2023/10/04 04:10:03;;;;;;;2.43;2.23;;;;;;;16.16;81.41;101116.78;5094064;28;20643;-81
2023/10/04 04:12:29;;;;;;;12.80;2.57;;;;;;;15.99;81.75;101110.22;5094709;28;20177;-80
2023/10/04 04:14:55;;;;;;;5.73;3.90;;;;;;;16.01;81.43;101098.88;5095374;28;20201;-81
2023/10/04 04:17:22;;;;;;;3.63;3.07;;;;;;;16.03;81.79;101110.38;5095445;28;20269;-80
2023/10/04 04:19:49;;;;;;;9.83;3.40;;;;;;;15.96;81.78;101097.13;5093596;28;20204;-82
2023/10/04 04:22:15;;;;;;;10.23;4.80;;;;;;;15.85;82.09;101097.81;5093086;28;20670;-80
2023/10/04 04:24:41;;;;;;;2.70;2.53;;;;;;;16.00;81.89;101094.50;5093553;28;20198;-80
2023/10/04 04:27:07;;;;;;;10.30;3.10;;;;;;;15.72;83.14;101094.13;5093570;28;20265;-81
2023/10/04 04:29:32;;;;;;;1.47;1.37;;;;;;;15.90;82.82;101094.88;5094818;28;20189;-80
2023/10/04 04:31:58;;;;;;;1.83;1.73;;;;;;;15.94;82.67;101096.66;5094521;28;20213;-80
2023/10/04 04:34:25;;;;;;;3.43;3.13;;;;;;;15.85;82.43;101092.31;5094635;28;20194;-80
2023/10/04 04:36:51;;;;;;;3.53;3.13;;;;;;;15.62;83.50;101091.72;5092970;28;20202;-80
2023/10/04 04:39:18;;;;;;;14.77;3.50;;;;;;;15.58;83.97;101083.28;5093214;28;20706;-80
2023/10/04 04:41:46;;;;;;;10.23;2.80;;;;;;;15.47;84.54;101082.84;5093967;28;20260;-80
2023/10/04 04:44:19;;;;;;;8.70;4.00;;;;;;;15.40;84.99;101079.78;5093975;28;20197;-80
2023/10/04 04:46:47;;;;;;;2.70;2.50;;;;;;;15.53;84.78;101080.72;5094286;28;20227;-81
2023/10/04 04:49:12;;;;;;;12.00;2.93;;;;;;;15.32;85.34;101077.84;5094049;28;20265;-80
2023/10/04 04:51:38;;;;;;;3.57;3.27;;;;;;;15.40;85.60;101090.81;5093216;28;20628;-79
2023/10/04 04:54:03;;;;;;;4.13;2.73;;;;;;;15.50;85.04;101086.91;5092627;28;20573;-81
2023/10/04 04:56:29;;;;;;;11.70;5.40;;;;;;;15.31;85.36;101080.94;5094053;28;20214;-80
2023/10/04 04:58:57;;;;;;;5.37;3.83;;;;;;;15.27;85.73;101082.75;5092612;28;20210;-79
2023/10/04 05:01:23;;;;;;;2.07;1.67;;;;;;;15.41;85.86;101097.94;5084602;28;20182;-80
2023/10/04 05:03:50;;;;;;;6.40;5.80;;;;;;;15.38;85.29;101090.34;5092211;28;20351;-80
2023/10/04 05:06:21;;;;;;;3.17;2.63;;;;;;;15.68;85.14;101124.31;5092257;28;20652;-80
2023/10/04 05:08:46;;;;;;;6.03;4.87;;;;;;;15.53;85.33;101115.72;5093569;28;20200;-79
2023/10/04 05:11:12;;;;;;;4.30;3.23;;;;;;;15.41;85.20;101117.22;5092864;28;20639;-81
2023/10/04 05:13:37;;;;;;;2.90;2.70;;;;;;;15.60;85.20;101135.34;5093307;28;20277;-80
2023/10/04 05:16:05;;;;;;;4.50;4.13;;;;;;;15.61;85.05;101145.22;5091949;28;20209;-79
2023/10/04 05:18:31;;;;;;;5.13;4.63;;;;;;;15.57;85.32;101146.97;5093124;28;20243;-81
2023/10/04 05:20:57;;;;;;;5.73;4.67;;;;;;;15.36;85.75;101139.41;5092738;28;20357;-81
2023/10/04 05:23:28;;;;;;;3.40;2.10;;;;;;;15.62;85.20;101149.56;5093249;28;20215;-80
2023/10/04 05:25:54;;;;;;;2.33;2.10;;;;;;;15.83;84.61;101164.28;5093205;28;20174;-79
2023/10/04 05:28:20;;;;;;;3.73;3.43;;;;;;;15.61;84.38;101156.22;5093128;28;20188;-80
2023/10/04 05:30:46;;;;;;;5.63;3.40;;;;;;;15.60;85.09;101168.38;5092949;28;20185;-80
2023/10/04 05:33:13;;;;;;;13.00;4.80;;;;;;;15.56;85.34;101181.16;5092457;28;20239;-79
2023/10/04 05:35:44;;;;;;;2.40;2.30;;;;;;;15.69;85.27;101183.78;5093083;28;20204;-81
2023/10/04 05:38:11;;;;;;;3.30;3.10;;;;;;;15.53;85.89;101173.56;5093147;28;20591;-80
2023/10/04 05:40:38;;;;;;;8.07;4.80;;;;;;;15.64;85.11;101185.91;5092873;28;20603;-81
2023/10/04 05:43:06;;;;;;;2.90;2.70;;;;;;;15.65;85.06;101188.31;5094700;28;20254;-80
2023/10/04 05:45:34;;;;;;;5.03;4.63;;;;;;;15.37;85.27;101160.31;5094903;28;20256;-81
2023/10/04 05:47:59;;;;;;;6.00;4.57;;;;;;;15.47;85.52;101170.16;5095106;28;20177;-81
2023/10/04 05:50:26;;;;;;;4.57;4.23;;;;;;;15.67;85.52;101190.75;5094628;28;20261;-81
2023/10/04 05:52:53;;;;;;;6.13;4.17;;;;;;;15.67;84.83;101185.25;5094312;28;20212;-81
2023/10/04 05:55:20;;;;;;;3.40;3.20;;;;;;;15.62;84.96;101182.63;5094723;28;20256;-79
2023/10/04 05:57:47;;;;;;;3.53;3.10;;;;;;;15.84;84.39;101187.94;5090743;28;20269;-80
2023/10/04 06:03:06;;;;;;;6.00;4.10;;;;;;;15.67;84.98;101188.00;5092261;28;20197;-79
2023/10/04 06:05:34;;;;;;;3.80;3.27;;;;;;;15.63;84.93;101187.84;5090890;28;20186;-80
2023/10/04 06:08:06;;;;;;;4.47;4.07;;;;;;;15.71;84.51;101189.75;5092275;28;20178;-79
2023/10/04 06:10:32;;;;;;;6.03;4.93;;;;;;;15.67;84.76;101199.81;5091952;28;20173;-80
2023/10/04 06:12:58;;;;;;;10.20;5.27;;;;;;;15.61;85.24;101211.31;5091625;28;20181;-79
2023/10/04 06:15:27;;;;;;;7.67;7.07;;;;;;;15.47;85.25;101183.94;5090869;28;20287;-80
2023/10/04 06:17:52;;;;;;;8.87;2.00;;;;;;;15.73;85.90;101211.47;5092144;28;20238;-79
2023/10/04 06:20:23;;;;;;;3.83;3.53;;;;;;;15.80;85.03;101219.25;5091905;28;20644;-79
2023/10/04 06:23:00;;;;;;;6.53;6.03;;;;;;;15.62;85.33;101200.00;5092072;28;20185;-80
2023/10/04 06:25:27;;;;;;;10.47;5.37;;;;;;;15.56;85.12;101205.97;5090602;28;20729;-79
2023/10/04 06:27:54;;;;;;;7.03;6.40;;;;;;;15.60;85.40;101204.19;5092357;28;20170;-79
2023/10/04 06:30:22;;;;;;;7.20;6.40;;;;;;;15.84;85.01;101234.78;5090460;28;20651;-80
2023/10/04 06:32:49;;;;;;;14.47;7.27;;;;;;;15.54;85.54;101216.50;5090168;28;20242;-80
2023/10/04 06:35:15;;;;;;;10.63;6.90;;;;;;;15.67;85.46;101232.06;5090568;28;20182;-79
2023/10/04 06:37:40;;;;;;;11.17;6.13;;;;;;;15.67;85.36;101215.53;5091878;28;20238;-79
2023/10/04 06:40:14;;;;;;;8.93;5.97;;;;;;;15.75;84.95;101222.97;5090430;28;20674;-80
2023/10/04 06:42:40;;;;;;;6.70;6.10;;;;;;;15.67;85.43;101224.63;5090261;28;20182;-80
2023/10/04 06:45:06;;;;;;;4.50;4.20;;;;;;;15.79;85.33;101232.22;5090561;28;20198;-80
2023/10/04 06:47:34;;;;;;;7.43;6.03;;;;;;;15.55;86.07;101212.59;5090371;28;20188;-80
2023/10/04 06:50:00;;;;;;;9.87;6.63;;;;;;;15.68;85.30;101212.47;5090386;28;20557;-79
2023/10/04 06:52:26;;;;;;;7.13;5.73;;;;;;;15.85;84.70;101232.84;5091079;28;20169;-80
2023/10/04 06:54:51;;;;;;;13.70;5.27;;;;;;;15.80;84.61;101222.00;5092109;28;20580;-81
2023/10/04 06:57:18;;;;;;;2.50;2.20;;;;;;;16.11;83.83;101249.31;5092010;28;20247;-80
2023/10/04 06:59:44;;;;;;;20.07;6.23;;;;;;;15.90;83.82;101221.63;5090241;28;20526;-79
2023/10/04 07:02:10;;;;;;;7.00;4.07;;;;;;;16.08;83.67;101244.47;5089955;28;20185;-80
2023/10/04 07:04:35;;;;;;;21.07;5.77;;;;;;;15.84;84.41;101223.78;5090220;28;20205;-79
2023/10/04 07:07:01;;;;;;;3.07;2.83;;;;;;;16.01;84.60;101247.72;5090196;28;20188;-80
2023/10/04 07:09:27;;;;;;;5.07;4.33;;;;;;;16.18;84.03;101249.59;5090419;28;20234;-80
2023/10/04 07:11:53;;;;;;;6.53;5.53;;;;;;;16.01;83.90;101251.28;5095434;28;20677;-80
2023/10/04 07:14:18;;;;;;;4.67;3.57;;;;;;;16.04;83.90;101247.88;5094202;28;20202;-80
2023/10/04 07:16:44;;;;;;;10.73;8.10;;;;;;;15.86;84.79;101243.53;5094396;28;20680;-80
2023/10/04 07:19:09;;;;;;;11.93;8.87;;;;;;;15.96;84.79;101247.91;5095609;28;20647;-80
2023/10/04 07:21:34;;;;;;;8.90;6.70;;;;;;;16.06;84.65;101253.88;5094751;28;20193;-79
2023/10/04 07:24:00;;;;;;;2.57;2.47;;;;;;;16.31;84.48;101281.69;5095622;28;20194;-80
2023/10/04 07:26:25;;;;;;;7.47;5.50;;;;;;;16.22;83.87;101281.72;5095374;28;20557;-80
2023/10/04 07:28:51;;;;;;;15.17;4.77;;;;;;;16.33;83.64;101285.72;5095388;28;20170;-80
2023/10/04 07:31:17;;;;;;;10.93;2.73;;;;;;;16.45;83.29;101298.84;5094671;28;20189;-80
2023/10/04 07:33:42;;;;;;;7.00;5.37;;;;;;;16.39;82.84;101297.41;5095226;28;20204;-80
2023/10/04 07:36:08;;;;;;;6.03;5.47;;;;;;;16.35;82.99;101313.81;5095214;28;20194;-80
2023/10/04 07:38:35;;;;;;;6.00;5.10;;;;;;;16.43;82.91;101320.44;5094165;28;20174;-80
2023/10/04 07:41:01;;;;;;;6.43;4.97;;;;;;;16.39;83.42;101319.47;5093526;28;20182;-80
2023/10/04 07:43:26;;;;;;;15.60;5.13;;;;;;;16.35;83.75;101335.06;5094027;28;20202;-80
2023/10/04 07:45:52;;;;;;;11.77;6.87;;;;;;;16.31;84.02;101314.78;5095011;28;20636;-80
2023/10/04 07:48:17;;;;;;;6.70;3.20;;;;;;;16.78;82.66;101331.34;5087166;28;20177;-80
2023/10/04 07:50:43;;;;;;;4.80;4.40;;;;;;;16.62;82.70;101317.28;5094990;28;20253;-80
2023/10/04 07:53:08;;;;;;;4.77;4.47;;;;;;;16.71;82.37;101318.09;5093291;28;20202;-80
2023/10/04 07:55:34;;;;;;;6.00;5.50;;;;;;;16.68;82.14;101327.03;5093502;28;20189;-79
2023/10/04 07:58:04;;;;;;;13.33;6.33;;;;;;;16.69;81.97;101330.59;5093591;28;20189;-80
2023/10/04 08:00:30;;;;;;;16.83;6.67;;;;;;;16.70;81.88;101326.69;5093422;28;20182;-80
2023/10/04 08:02:57;;;;;;;13.03;5.73;;;;;;;16.85;81.98;101345.47;5093190;28;20173;-79
2023/10/04 08:05:31;;;;;;;6.50;5.97;;;;;;;16.77;81.83;101343.53;5093418;28;20174;-80
2023/10/04 08:07:58;;;;;;;6.20;5.70;;;;;;;16.89;81.01;101333.41;5093731;28;20192;-80
2023/10/04 08:10:25;;;;;;;14.67;9.27;;;;;;;16.68;81.38;101326.22;5094844;28;20177;-80
2023/10/04 08:12:54;;;;;;;5.43;4.93;;;;;;;16.79;81.68;101349.56;5094519;28;20291;-81
2023/10/04 08:15:27;;;;;;;5.17;4.77;;;;;;;16.86;80.77;101325.00;5093316;28;20190;-80
2023/10/04 08:17:56;;;;;;;6.43;5.93;;;;;;;17.06;81.03;101351.84;5094800;28;20186;-80
2023/10/04 08:20:24;;;;;;;3.90;3.60;;;;;;;17.20;80.81;101357.13;5092797;28;20242;-80
2023/10/04 08:22:49;;;;;;;7.80;6.03;;;;;;;17.10;80.63;101336.25;5092558;28;20197;-81
2023/10/04 08:25:19;;;;;;;4.70;4.30;;;;;;;17.41;80.12;101365.47;5095732;28;20256;-81
2023/10/04 08:27:44;;;;;;;6.27;5.30;;;;;;;17.02;80.03;101331.56;5097623;28;20166;-82
2023/10/04 08:30:12;;;;;;;10.57;5.03;;;;;;;17.23;80.16;101348.19;5095522;28;20178;-81
2023/10/04 08:32:43;;;;;;;27.00;6.10;;;;;;;17.48;80.01;101362.97;5095019;28;20189;-81
2023/10/04 08:35:21;;;;;;;4.30;4.00;;;;;;;17.50;79.17;101353.22;5094942;28;20204;-81
2023/10/04 08:37:48;;;;;;;8.33;7.60;;;;;;;17.34;78.47;101337.56;5091610;28;20206;-81
2023/10/04 08:40:14;;;;;;;8.53;7.73;;;;;;;17.41;78.85;101352.47;5091720;28;20178;-80
2023/10/04 08:42:42;;;;;;;7.47;5.43;;;;;;;17.52;78.25;101358.41;5094693;28;20176;-81
2023/10/04 08:45:08;;;;;;;6.03;5.10;;;;;;;17.65;78.32;101362.03;5095978;28;20206;-81
2023/10/04 08:47:34;;;;;;;5.93;4.17;;;;;;;17.51;78.08;101343.78;5096275;28;20174;-81
2023/10/04 08:50:04;;;;;;;6.37;5.40;;;;;;;17.88;77.45;101368.88;5085918;28;20242;-80
2023/10/04 08:52:35;;;;;;;5.13;4.60;;;;;;;18.07;77.12;101374.72;5095313;28;20208;-81
2023/10/04 08:55:07;;;;;;;7.43;6.83;;;;;;;17.67;77.08;101343.19;5095595;28;20197;-81
2023/10/04 08:57:35;;;;;;;10.03;5.73;;;;;;;17.81;76.77;101347.31;5093844;28;20235;-81
2023/10/04 09:00:06;;;;;;;8.10;7.43;;;;;;;17.52;76.60;101325.25;5095320;28;20189;-81
2023/10/04 09:02:33;;;;;;;8.03;4.77;;;;;;;17.71;76.80;101341.38;5094451;28;20259;-81
2023/10/04 09:04:59;;;;;;;6.30;5.60;;;;;;;17.78;76.03;101334.16;5093589;28;20259;-81
2023/10/04 09:07:25;;;;;;;4.40;4.00;;;;;;;17.67;76.68;101340.41;5095075;28;20169;-80
2023/10/04 09:09:54;;;;;;;6.03;5.37;;;;;;;17.78;77.51;101349.94;5094997;28;20170;-81
2023/10/04 09:12:19;;;;;;;6.37;4.50;;;;;;;17.77;76.54;101332.53;5094154;28;20650;-81
2023/10/04 09:14:46;;;;;;;14.20;4.17;;;;;;;17.81;76.91;101333.50;5093273;28;20236;-81
2023/10/04 09:17:14;;;;;;;7.63;6.77;;;;;;;17.76;76.72;101313.53;5094726;28;20208;-81
2023/10/04 09:19:40;;;;;;;5.67;5.27;;;;;;;17.83;76.31;101336.72;5093253;28;20549;-81
2023/10/04 09:22:07;;;;;;;5.63;5.10;;;;;;;17.95;76.52;101346.22;5093301;28;20729;-79
2023/10/04 09:24:37;;;;;;;7.43;6.17;;;;;;;17.91;76.21;101337.78;5091568;28;20198;-80
2023/10/04 09:27:03;;;;;;;4.97;4.57;;;;;;;17.98;75.82;101346.34;5092985;28;20169;-79
2023/10/04 09:29:30;;;;;;;6.83;4.83;;;;;;;17.90;75.02;101319.59;5091760;28;20177;-80
2023/10/04 09:31:56;;;;;;;5.07;4.60;;;;;;;17.97;75.27;101341.97;5091174;28;20219;-80
2023/10/04 09:34:25;;;;;;;2.50;2.30;;;;;;;18.41;74.42;101359.75;5092611;28;20583;-80
2023/10/04 09:36:54;;;;;;;17.13;3.93;;;;;;;18.33;73.80;101346.81;5092699;28;20202;-80
2023/10/04 09:39:24;;;;;;;14.27;5.43;;;;;;;18.32;74.15;101333.31;5091452;28;20654;-79
2023/10/04 09:41:51;;;;;;;7.30;5.43;;;;;;;18.09;74.08;101336.50;5090837;28;20667;-79
2023/10/04 09:44:24;;;;;;;3.23;3.03;;;;;;;18.36;74.24;101354.41;5092681;28;20202;-81
2023/10/04 09:46:56;;;;;;;3.90;3.60;;;;;;;18.46;73.65;101346.84;5093016;28;20257;-80
2023/10/04 09:49:25;;;;;;;5.50;4.93;;;;;;;18.36;73.24;101342.53;5089952;28;20185;-80
2023/10/04 09:51:53;;;;;;;3.57;3.27;;;;;;;18.30;72.80;101349.47;5084335;28;20643;-80
2023/10/04 09:54:18;;;;;;;4.80;4.33;;;;;;;18.52;73.08;101368.44;5091388;28;20246;-80
2023/10/04 09:56:49;;;;;;;5.50;4.77;;;;;;;18.42;72.26;101346.72;5091145;28;20300;-80
2023/10/04 09:59:19;;;;;;;5.07;4.10;;;;;;;18.39;72.22;101352.97;5092338;28;20178;-80
2023/10/04 10:01:52;;;;;;;10.50;4.13;;;;;;;18.28;72.34;101347.03;5091986;28;20644;-80
2023/10/04 10:04:25;;;;;;;4.30;4.00;;;;;;;18.27;71.92;101334.34;5091133;28;20205;-80
2023/10/04 10:07:06;;;;;;;9.27;6.13;;;;;;;17.99;72.46;101338.88;5091076;28;20197;-79
2023/10/04 10:09:34;;;;;;;12.40;6.17;;;;;;;18.08;72.44;101325.75;5091034;28;20189;-80
2023/10/04 10:12:02;;;;;;;5.43;4.03;;;;;;;18.34;72.31;101350.38;5091769;28;20182;-80
2023/10/04 10:14:28;;;;;;;3.60;3.30;;;;;;;18.82;71.56;101371.88;5090704;28;20205;-80
2023/10/04 10:16:55;;;;;;;4.77;4.37;;;;;;;18.54;69.64;101334.88;5092062;28;20197;-80
2023/10/04 10:19:23;;;;;;;7.87;3.43;;;;;;;18.59;70.19;101338.22;5092204;28;20586;-80
2023/10/04 10:22:08;;;;;;;1.57;1.47;;;;;;;18.83;69.78;101367.94;5091663;28;20277;-79
2023/10/04 10:24:34;;;;;;;0.50;0.50;;;;;;;19.11;70.46;101390.25;5090807;28;20210;-80
2023/10/04 10:27:07;;;;;;;4.97;4.47;;;;;;;18.74;69.99;101345.06;5091085;28;20174;-81
2023/10/04 10:29:32;;;;;;;3.30;2.97;;;;;;;18.79;69.81;101328.22;5090930;28;20177;-80
2023/10/04 10:32:00;;;;;;;2.73;2.53;;;;;;;19.10;70.55;101388.63;5091644;28;20185;-79
2023/10/04 10:34:27;;;;;;;3.10;2.80;;;;;;;19.10;69.65;101355.38;5090752;28;20194;-80
2023/10/04 10:37:08;;;;;;;2.60;2.43;;;;;;;19.38;68.86;101383.16;5090746;28;20202;-81
2023/10/04 10:39:42;;;;;;;5.40;3.50;;;;;;;19.28;68.40;101342.88;5090418;28;20292;-80
2023/10/04 10:42:11;;;;;;;7.00;3.53;;;;;;;19.34;68.45;101351.75;5090332;28;20188;-80
2023/10/04 10:44:39;;;;;;;7.03;4.67;;;;;;;19.33;67.40;101344.59;5091923;28;20201;-80
2023/10/04 10:47:12;;;;;;;5.70;4.43;;;;;;;19.36;66.62;101343.91;5090914;28;20174;-81
2023/10/04 10:49:48;;;;;;;5.73;3.97;;;;;;;19.46;67.37;101346.19;5090576;28;20211;-81
2023/10/04 10:52:20;;;;;;;5.10;3.47;;;;;;;19.64;67.51;101373.69;5091379;28;20169;-80
2023/10/04 10:54:46;;;;;;;6.53;2.93;;;;;;;19.39;66.23;101343.22;5091870;28;20334;-80
2023/10/04 10:57:12;;;;;;;4.10;2.90;;;;;;;19.12;66.64;101319.81;5090511;28;20201;-80
2023/10/04 10:59:37;;;;;;;0.80;0.80;;;;;;;19.57;67.36;101357.66;5090448;28;20276;-80
2023/10/04 11:02:04;;;;;;;8.70;3.60;;;;;;;19.38;67.04;101338.00;5091248;28;20181;-79
2023/10/04 11:04:30;;;;;;;2.47;2.30;;;;;;;19.48;66.59;101334.75;5091568;28;20197;-80
2023/10/04 11:06:55;;;;;;;2.50;2.30;;;;;;;19.77;66.31;101348.34;5092059;28;20197;-78
2023/10/04 11:09:21;;;;;;;3.83;3.37;;;;;;;19.89;66.02;101364.94;5090547;28;20182;-81
2023/10/04 11:11:47;;;;;;;4.27;2.93;;;;;;;19.44;65.13;101320.81;5093227;28;20177;-81
2023/10/04 11:14:16;;;;;;;2.33;1.77;;;;;;;19.71;65.13;101341.44;5094166;28;20199;-80
2023/10/04 11:16:42;;;;;;;3.07;2.63;;;;;;;19.55;64.99;101338.59;5094391;28;20193;-80
2023/10/04 11:19:07;;;;;;;4.87;2.37;;;;;;;19.56;64.39;101333.88;5093385;28;20181;-81
2023/10/04 11:21:35;;;;;;;2.47;2.07;;;;;;;19.61;64.33;101333.59;5094034;28;20675;-82
2023/10/04 11:24:03;;;;;;;7.43;2.93;;;;;;;19.68;64.73;101336.59;5093659;28;20272;-81
2023/10/04 11:26:30;;;;;;;6.13;3.07;;;;;;;19.63;64.43;101320.19;5094745;28;20196;-81
2023/10/04 11:28:56;;;;;;;4.07;3.30;;;;;;;19.73;63.57;101321.69;5092910;28;20608;-82
2023/10/04 11:31:23;;;;;;;3.90;3.50;;;;;;;19.55;63.22;101290.66;5092613;28;20213;-81